Time;durP1;ratioP1;P1;durP2;ratioP2;P2;SDS_P1;SDS_P2;PMS_P1;PMS_P2;Temp;Humidity;BMP_temperature;BMP_pressure;BME280_temperature;BME280_humidity;BME280_pressure;Samples;Min_cycle;Max_cycle;Signal;HPM_P1;HPM_P2
2024/03/28 00:01:02;;;;;;;8.97;4.07;;;;;;;;;;5134656;28;20275;-57
2024/03/28 00:03:28;;;;;;;6.63;3.88;;;;;;;;;;5136978;28;20023;-56
2024/03/28 00:05:54;;;;;;;7.50;4.80;;;;;;;;;;5137444;28;20052;-59
2024/03/28 00:08:19;;;;;;;8.88;4.80;;;;;;;;;;5137289;28;20139;-60
2024/03/28 00:10:50;;;;;;;7.37;3.97;;;;;;;;;;5129477;28;20039;-58
2024/03/28 00:13:16;;;;;;;6.10;3.83;;;;;;;;;;5136547;28;20048;-55
2024/03/28 00:15:42;;;;;;;7.10;4.50;;;;;;;;;;5133154;28;20287;-58
2024/03/28 00:18:07;;;;;;;11.93;4.00;;;;;;;;;;5136970;28;20053;-54
2024/03/28 00:20:32;;;;;;;10.73;4.57;;;;;;;;;;5130668;28;20282;-56
2024/03/28 00:22:58;;;;;;;12.47;4.67;;;;;;;;;;5136952;28;20028;-58
2024/03/28 00:25:23;;;;;;;7.18;4.68;;;;;;;;;;5132620;28;20036;-57
2024/03/28 00:27:49;;;;;;;7.80;4.63;;;;;;;;;;5135405;28;20036;-58
2024/03/28 00:30:15;;;;;;;8.00;4.37;;;;;;;;;;5136485;28;20065;-55
2024/03/28 00:32:40;;;;;;;9.18;4.38;;;;;;;;;;5132861;28;20288;-55
2024/03/28 00:35:05;;;;;;;6.37;3.63;;;;;;;;;;5134158;28;20032;-58
2024/03/28 00:37:31;;;;;;;5.32;3.40;;;;;;;;;;5135826;28;20044;-56
2024/03/28 00:39:56;;;;;;;7.32;4.43;;;;;;;;;;5126220;28;20039;-54
2024/03/28 00:42:22;;;;;;;6.30;4.10;;;;;;;;;;5136001;28;20027;-58
2024/03/28 00:44:47;;;;;;;7.63;4.85;;;;;;;;;;5136603;28;20051;-55
2024/03/28 00:47:13;;;;;;;7.45;4.45;;;;;;;;;;5124930;28;20048;-53
2024/03/28 00:49:38;;;;;;;8.30;4.37;;;;;;;;;;5128537;28;20031;-54
2024/03/28 00:52:04;;;;;;;6.78;4.80;;;;;;;;;;5135614;28;20031;-56
2024/03/28 00:54:29;;;;;;;8.90;4.97;;;;;;;;;;5135759;28;20039;-56
2024/03/28 00:56:55;;;;;;;8.75;5.13;;;;;;;;;;5133467;28;20492;-60
2024/03/28 00:59:20;;;;;;;7.78;5.05;;;;;;;;;;5132806;28;20028;-57
2024/03/28 01:01:46;;;;;;;7.38;4.45;;;;;;;;;;5133044;28;20087;-55
2024/03/28 01:04:12;;;;;;;7.07;4.47;;;;;;;;;;5136337;28;20043;-57
2024/03/28 01:06:39;;;;;;;9.10;4.97;;;;;;;;;;5135985;28;20272;-55
2024/03/28 01:09:05;;;;;;;9.25;4.85;;;;;;;;;;5131084;28;20057;-57
2024/03/28 01:11:30;;;;;;;8.20;5.23;;;;;;;;;;5132352;28;20043;-56
2024/03/28 01:13:55;;;;;;;8.77;4.93;;;;;;;;;;5136274;28;20031;-57
2024/03/28 01:16:20;;;;;;;9.70;5.37;;;;;;;;;;5135139;28;20023;-57
2024/03/28 01:18:46;;;;;;;8.00;4.47;;;;;;;;;;5136130;28;20034;-57
2024/03/28 01:21:11;;;;;;;7.57;4.77;;;;;;;;;;5132273;28;20024;-56
2024/03/28 01:23:36;;;;;;;8.63;4.68;;;;;;;;;;5135158;28;20039;-55
2024/03/28 01:26:02;;;;;;;7.25;4.25;;;;;;;;;;5133502;28;20039;-58
2024/03/28 01:28:28;;;;;;;10.57;5.35;;;;;;;;;;5132089;28;20057;-55
2024/03/28 01:31:01;;;;;;;7.93;4.20;;;;;;;;;;5123801;28;20035;-57
2024/03/28 01:33:27;;;;;;;10.95;4.60;;;;;;;;;;5135656;28;20019;-56
2024/03/28 01:35:52;;;;;;;7.43;4.47;;;;;;;;;;5117410;28;20042;-56
2024/03/28 01:38:18;;;;;;;11.50;4.78;;;;;;;;;;5127858;28;20036;-57
2024/03/28 01:40:43;;;;;;;10.30;4.73;;;;;;;;;;5134765;28;20035;-55
2024/03/28 01:43:09;;;;;;;7.25;4.32;;;;;;;;;;5135162;28;20469;-56
2024/03/28 01:45:35;;;;;;;8.03;4.73;;;;;;;;;;5135312;28;20036;-54
2024/03/28 01:48:00;;;;;;;6.70;3.87;;;;;;;;;;5122866;28;20260;-58
2024/03/28 01:50:26;;;;;;;6.28;4.20;;;;;;;;;;5125507;28;20526;-55
2024/03/28 01:52:51;;;;;;;7.97;4.15;;;;;;;;;;5129581;28;20040;-57
2024/03/28 01:55:17;;;;;;;7.40;3.72;;;;;;;;;;5130732;28;20091;-58
2024/03/28 01:57:43;;;;;;;8.27;4.57;;;;;;;;;;5134953;28;20066;-58
2024/03/28 02:00:10;;;;;;;7.72;4.10;;;;;;;;;;5130456;28;20028;-58
2024/03/28 02:02:38;;;;;;;6.65;4.07;;;;;;;;;;5134627;28;20035;-54
2024/03/28 02:05:04;;;;;;;6.60;4.00;;;;;;;;;;5133404;28;20030;-55
2024/03/28 02:07:29;;;;;;;6.57;4.50;;;;;;;;;;5134515;28;20035;-58
2024/03/28 02:09:54;;;;;;;9.33;4.13;;;;;;;;;;5132535;28;20275;-54
2024/03/28 02:12:20;;;;;;;6.15;4.13;;;;;;;;;;5134223;28;20418;-54
2024/03/28 02:14:45;;;;;;;6.67;4.23;;;;;;;;;;5134076;28;20051;-56
2024/03/28 02:17:12;;;;;;;8.03;4.70;;;;;;;;;;5134125;28;20023;-57
2024/03/28 02:19:37;;;;;;;9.20;4.78;;;;;;;;;;5131579;28;20040;-56
2024/03/28 02:22:02;;;;;;;8.30;4.20;;;;;;;;;;5134051;28;20091;-56
2024/03/28 02:24:28;;;;;;;6.40;4.13;;;;;;;;;;5133371;28;20031;-57
2024/03/28 02:26:54;;;;;;;6.72;4.20;;;;;;;;;;5131033;28;20035;-57
2024/03/28 02:29:19;;;;;;;7.67;4.37;;;;;;;;;;5133651;28;20043;-54
2024/03/28 02:31:44;;;;;;;8.23;4.03;;;;;;;;;;5132161;28;20038;-51
2024/03/28 02:34:10;;;;;;;7.00;4.17;;;;;;;;;;5132079;28;20087;-54
2024/03/28 02:36:35;;;;;;;6.25;3.80;;;;;;;;;;5134579;28;20027;-56
2024/03/28 02:39:01;;;;;;;6.20;4.20;;;;;;;;;;5144686;28;20070;-56
2024/03/28 02:41:26;;;;;;;6.83;3.57;;;;;;;;;;5132291;28;20031;-57
2024/03/28 02:43:52;;;;;;;8.37;5.27;;;;;;;;;;5135361;28;20047;-52
2024/03/28 02:46:18;;;;;;;6.20;3.83;;;;;;;;;;5139292;28;20061;-56
2024/03/28 02:48:43;;;;;;;8.60;3.42;;;;;;;;;;5138734;28;20099;-54
2024/03/28 02:51:08;;;;;;;5.40;3.77;;;;;;;;;;5138618;28;20046;-57
2024/03/28 02:53:34;;;;;;;7.40;4.45;;;;;;;;;;5138542;28;20028;-57
2024/03/28 02:55:59;;;;;;;12.67;4.17;;;;;;;;;;5139054;28;20044;-56
2024/03/28 02:58:25;;;;;;;6.40;3.80;;;;;;;;;;5138428;28;20280;-55
2024/03/28 03:00:51;;;;;;;5.22;3.47;;;;;;;;;;5135702;28;20054;-57
2024/03/28 03:03:17;;;;;;;9.50;4.78;;;;;;;;;;5133056;28;20042;-56
2024/03/28 03:05:42;;;;;;;6.90;4.10;;;;;;;;;;5126743;28;20059;-57
2024/03/28 03:08:07;;;;;;;9.43;4.60;;;;;;;;;;5138522;28;20074;-58
2024/03/28 03:10:32;;;;;;;9.07;4.00;;;;;;;;;;5138448;28;20040;-58
2024/03/28 03:12:58;;;;;;;7.40;4.03;;;;;;;;;;5137646;28;20032;-59
2024/03/28 03:15:24;;;;;;;7.45;3.92;;;;;;;;;;5138620;28;20091;-55
2024/03/28 03:17:50;;;;;;;6.75;4.43;;;;;;;;;;5137665;28;20038;-55
2024/03/28 03:20:15;;;;;;;6.17;4.00;;;;;;;;;;5136994;28;20071;-58
2024/03/28 03:22:48;;;;;;;7.82;3.67;;;;;;;;;;5138401;28;20035;-57
2024/03/28 03:25:24;;;;;;;8.80;4.25;;;;;;;;;;5138022;28;20031;-55
2024/03/28 03:36:06;;;;;;;5.18;3.17;;;;;;;;;;5135410;28;20028;-58
2024/03/28 03:38:32;;;;;;;7.77;3.47;;;;;;;;;;5132321;28;20234;-58
2024/03/28 03:40:59;;;;;;;5.47;3.38;;;;;;;;;;5135526;28;20332;-56
2024/03/28 03:43:25;;;;;;;5.25;3.28;;;;;;;;;;5129053;28;20050;-57
2024/03/28 03:45:50;;;;;;;6.13;3.07;;;;;;;;;;5135512;28;20027;-58
2024/03/28 03:48:15;;;;;;;4.80;3.05;;;;;;;;;;5134867;28;20024;-55
2024/03/28 03:50:41;;;;;;;5.00;3.37;;;;;;;;;;5137294;28;20050;-56
2024/03/28 03:53:06;;;;;;;5.32;3.47;;;;;;;;;;5137147;28;20034;-56
2024/03/28 03:55:32;;;;;;;8.23;3.63;;;;;;;;;;5136492;28;20058;-56
2024/03/28 03:57:57;;;;;;;7.33;3.40;;;;;;;;;;5137765;28;20031;-57
2024/03/28 04:00:23;;;;;;;4.72;2.90;;;;;;;;;;5134163;28;20102;-55
2024/03/28 04:02:48;;;;;;;6.73;3.40;;;;;;;;;;5129474;28;20031;-52
2024/03/28 04:05:14;;;;;;;5.40;3.47;;;;;;;;;;5137563;28;20028;-56
2024/03/28 04:07:40;;;;;;;7.50;3.22;;;;;;;;;;5129501;28;20081;-55
2024/03/28 04:10:05;;;;;;;5.10;3.33;;;;;;;;;;5117254;28;20040;-55
2024/03/28 04:12:31;;;;;;;4.47;2.67;;;;;;;;;;5112549;28;20050;-57
2024/03/28 04:14:56;;;;;;;5.75;3.58;;;;;;;;;;5130467;28;20053;-54
2024/03/28 04:17:21;;;;;;;7.33;3.70;;;;;;;;;;5137721;28;20043;-56
2024/03/28 04:19:46;;;;;;;4.53;3.10;;;;;;;;;;5137045;28;20083;-56
2024/03/28 04:22:12;;;;;;;5.47;3.33;;;;;;;;;;5135053;28;20027;-54
2024/03/28 04:24:37;;;;;;;5.50;3.20;;;;;;;;;;5136429;28;20050;-56
2024/03/28 04:27:03;;;;;;;7.95;3.20;;;;;;;;;;5135818;28;20031;-56
2024/03/28 04:29:29;;;;;;;8.35;4.00;;;;;;;;;;5139854;27;20032;-56
2024/03/28 04:31:55;;;;;;;8.53;3.27;;;;;;;;;;5121865;28;20054;-58
2024/03/28 04:34:20;;;;;;;5.90;3.43;;;;;;;;;;5133633;28;20291;-56
2024/03/28 04:36:46;;;;;;;5.87;3.83;;;;;;;;;;5119286;28;20320;-53
2024/03/28 04:39:15;;;;;;;11.13;3.83;;;;;;;;;;5135506;28;20023;-56
2024/03/28 04:41:40;;;;;;;6.43;3.70;;;;;;;;;;5131494;28;20039;-55
2024/03/28 04:44:06;;;;;;;9.33;3.43;;;;;;;;;;5130835;28;20051;-56
2024/03/28 04:46:32;;;;;;;7.30;3.43;;;;;;;;;;5136621;28;20481;-58
2024/03/28 04:48:58;;;;;;;9.77;3.47;;;;;;;;;;5131438;28;20249;-57
2024/03/28 04:51:24;;;;;;;9.23;3.28;;;;;;;;;;5134325;28;20069;-58
2024/03/28 04:53:49;;;;;;;6.00;3.90;;;;;;;;;;5133894;28;20023;-57
2024/03/28 04:56:16;;;;;;;8.93;4.25;;;;;;;;;;5136621;28;20040;-58
2024/03/28 04:58:41;;;;;;;7.38;3.90;;;;;;;;;;5126264;28;20104;-56
2024/03/28 05:01:07;;;;;;;5.60;3.35;;;;;;;;;;5129229;28;20032;-55
2024/03/28 05:03:32;;;;;;;6.35;3.88;;;;;;;;;;5133491;28;20027;-55
2024/03/28 05:05:58;;;;;;;8.00;3.72;;;;;;;;;;5136093;28;20053;-58
2024/03/28 05:08:25;;;;;;;6.72;4.00;;;;;;;;;;5134522;28;20024;-57
2024/03/28 05:10:50;;;;;;;5.25;3.80;;;;;;;;;;5133056;28;20028;-55
2024/03/28 05:13:16;;;;;;;5.78;3.67;;;;;;;;;;5126807;28;20096;-57
2024/03/28 05:15:41;;;;;;;9.10;4.33;;;;;;;;;;5126168;28;20050;-59
2024/03/28 05:18:06;;;;;;;7.13;4.20;;;;;;;;;;5134444;28;20032;-59
2024/03/28 05:20:32;;;;;;;9.52;4.30;;;;;;;;;;5136167;28;20038;-56
2024/03/28 05:22:58;;;;;;;8.45;3.70;;;;;;;;;;5135147;28;20031;-57
2024/03/28 05:25:23;;;;;;;8.30;3.80;;;;;;;;;;5139431;27;20031;-57
2024/03/28 05:27:48;;;;;;;7.40;3.97;;;;;;;;;;5134744;28;20039;-57
2024/03/28 05:30:14;;;;;;;6.40;4.00;;;;;;;;;;5135894;28;20066;-56
2024/03/28 05:32:40;;;;;;;6.07;3.63;;;;;;;;;;5127615;28;20035;-57
2024/03/28 05:35:05;;;;;;;9.50;4.63;;;;;;;;;;5133067;28;20032;-56
2024/03/28 05:37:31;;;;;;;8.00;4.33;;;;;;;;;;5134541;28;20248;-56
2024/03/28 05:39:56;;;;;;;7.33;4.10;;;;;;;;;;5135736;28;20285;-57
2024/03/28 05:42:22;;;;;;;9.15;4.53;;;;;;;;;;5128534;28;20054;-54
2024/03/28 05:44:47;;;;;;;9.53;4.30;;;;;;;;;;5130426;28;20020;-54
2024/03/28 05:47:13;;;;;;;7.97;4.32;;;;;;;;;;5135099;28;20105;-57
2024/03/28 05:49:38;;;;;;;9.20;4.47;;;;;;;;;;5135463;28;20032;-56
2024/03/28 05:52:04;;;;;;;8.95;5.32;;;;;;;;;;5130619;28;20089;-56
2024/03/28 05:54:29;;;;;;;7.80;4.83;;;;;;;;;;5127401;28;20030;-54
2024/03/28 05:56:55;;;;;;;10.63;4.60;;;;;;;;;;5131159;28;20255;-57
2024/03/28 05:59:22;;;;;;;9.33;4.90;;;;;;;;;;5128911;28;20319;-54
2024/03/28 06:01:47;;;;;;;8.65;4.60;;;;;;;;;;5131345;28;20031;-56
2024/03/28 06:04:13;;;;;;;7.07;4.33;;;;;;;;;;5134064;28;20100;-56
2024/03/28 06:06:38;;;;;;;8.37;4.73;;;;;;;;;;5135257;28;20024;-56
2024/03/28 06:09:04;;;;;;;9.43;5.13;;;;;;;;;;5130191;28;20046;-58
2024/03/28 06:11:29;;;;;;;11.88;5.18;;;;;;;;;;5132517;28;20050;-58
2024/03/28 06:14:05;;;;;;;11.57;5.23;;;;;;;;;;5134944;28;20052;-54
2024/03/28 06:16:31;;;;;;;9.63;5.05;;;;;;;;;;5133367;28;20286;-56
2024/03/28 06:18:56;;;;;;;7.43;5.07;;;;;;;;;;5134734;28;20023;-54
2024/03/28 06:21:21;;;;;;;8.27;5.07;;;;;;;;;;5128674;28;20039;-55
2024/03/28 06:23:47;;;;;;;9.10;5.43;;;;;;;;;;5129392;28;20272;-58
2024/03/28 06:26:12;;;;;;;8.03;4.63;;;;;;;;;;5109229;28;20305;-56
2024/03/28 06:28:38;;;;;;;11.02;5.65;;;;;;;;;;5129565;28;20040;-53
2024/03/28 06:31:04;;;;;;;8.40;4.73;;;;;;;;;;5133567;28;20052;-57
2024/03/28 06:33:29;;;;;;;8.50;5.15;;;;;;;;;;5129303;28;20028;-57
2024/03/28 06:35:55;;;;;;;11.55;5.60;;;;;;;;;;5131041;28;20087;-58
2024/03/28 06:38:20;;;;;;;10.57;5.33;;;;;;;;;;5134752;28;20030;-57
2024/03/28 06:40:46;;;;;;;8.55;4.90;;;;;;;;;;5131982;28;20060;-56
2024/03/28 06:43:11;;;;;;;6.80;4.75;;;;;;;;;;5116072;28;20038;-56
2024/03/28 06:45:37;;;;;;;9.70;5.28;;;;;;;;;;5129457;28;20044;-58
2024/03/28 06:48:05;;;;;;;10.25;4.72;;;;;;;;;;5134981;28;20036;-56
2024/03/28 06:50:30;;;;;;;8.52;4.72;;;;;;;;;;5131579;28;20035;-56
2024/03/28 06:52:58;;;;;;;13.57;5.20;;;;;;;;;;5132510;28;20091;-57
2024/03/28 06:55:26;;;;;;;10.50;5.20;;;;;;;;;;5128976;28;20039;-55
2024/03/28 06:57:52;;;;;;;9.03;5.43;;;;;;;;;;5124541;28;20047;-56
2024/03/28 07:00:17;;;;;;;11.80;5.40;;;;;;;;;;5130406;28;20267;-55
2024/03/28 07:02:42;;;;;;;8.40;4.63;;;;;;;;;;5128249;28;20123;-56
2024/03/28 07:05:08;;;;;;;9.50;5.15;;;;;;;;;;5130148;28;20032;-56
2024/03/28 07:07:34;;;;;;;9.77;5.07;;;;;;;;;;5132537;28;20061;-57
2024/03/28 07:09:59;;;;;;;;;;;;;;;;;;5135003;28;20028;-55
2024/03/28 07:12:25;;;;;;;9.30;5.13;;;;;;;;;;5126882;28;19965;-57
2024/03/28 07:14:51;;;;;;;9.43;5.22;;;;;;;;;;5131523;28;20027;-54
2024/03/28 07:17:16;;;;;;;12.03;5.70;;;;;;;;;;5132758;28;20035;-56
2024/03/28 07:19:41;;;;;;;9.17;4.80;;;;;;;;;;5127905;28;20289;-58
2024/03/28 07:22:08;;;;;;;7.63;4.77;;;;;;;;;;5127470;28;20028;-54
2024/03/28 07:24:36;;;;;;;8.23;4.22;;;;;;;;;;5124352;28;20043;-57
2024/03/28 07:27:02;;;;;;;7.95;4.80;;;;;;;;;;5131012;28;20059;-56
2024/03/28 07:29:28;;;;;;;8.13;4.03;;;;;;;;;;5136332;28;20091;-57
2024/03/28 07:31:53;;;;;;;7.55;3.95;;;;;;;;;;5135402;28;20072;-57
2024/03/28 07:34:19;;;;;;;7.70;4.40;;;;;;;;;;5130715;28;20032;-56
2024/03/28 07:36:44;;;;;;;7.53;3.97;;;;;;;;;;5123928;28;20039;-57
2024/03/28 07:39:11;;;;;;;4.93;3.23;;;;;;;;;;5135297;28;20050;-56
2024/03/28 07:41:36;;;;;;;8.23;4.07;;;;;;;;;;5135127;28;20368;-54
2024/03/28 07:44:01;;;;;;;8.53;3.40;;;;;;;;;;5129652;28;20024;-54
2024/03/28 07:46:27;;;;;;;9.63;3.67;;;;;;;;;;5136744;28;20051;-58
2024/03/28 07:48:52;;;;;;;6.63;3.83;;;;;;;;;;5136026;28;20036;-57
2024/03/28 07:51:18;;;;;;;6.35;3.05;;;;;;;;;;5137689;28;20046;-56
2024/03/28 07:53:43;;;;;;;3.63;2.67;;;;;;;;;;5129424;28;20027;-57
2024/03/28 07:56:09;;;;;;;7.90;3.80;;;;;;;;;;5137386;28;20509;-59
2024/03/28 07:58:34;;;;;;;4.20;2.60;;;;;;;;;;5136709;28;20039;-56
2024/03/28 08:01:03;;;;;;;6.82;4.05;;;;;;;;;;5137494;28;20035;-57
2024/03/28 08:03:29;;;;;;;4.23;2.70;;;;;;;;;;5122387;28;20028;-56
2024/03/28 08:05:54;;;;;;;6.87;2.97;;;;;;;;;;5127549;28;20291;-55
2024/03/28 08:08:20;;;;;;;4.83;2.60;;;;;;;;;;5136263;28;20268;-56
2024/03/28 08:10:47;;;;;;;;;;;;;;;;;;5137767;28;20058;-57
2024/03/28 08:13:12;;;;;;;6.32;1.95;;;;;;;;;;5129801;28;19915;-56
2024/03/28 08:15:38;;;;;;;4.63;1.97;;;;;;;;;;5119212;28;20044;-56
2024/03/28 08:18:03;;;;;;;4.50;2.30;;;;;;;;;;5135835;28;20028;-58
2024/03/28 08:20:29;;;;;;;5.68;2.22;;;;;;;;;;5136993;28;20031;-58
2024/03/28 08:22:56;;;;;;;4.90;2.20;;;;;;;;;;5136461;28;20034;-55
2024/03/28 08:25:22;;;;;;;8.27;2.67;;;;;;;;;;5137089;28;20268;-59
2024/03/28 08:27:48;;;;;;;4.50;2.70;;;;;;;;;;5136545;28;20036;-59
2024/03/28 08:30:15;;;;;;;4.88;3.08;;;;;;;;;;5132876;28;20031;-57
2024/03/28 08:32:41;;;;;;;9.30;4.10;;;;;;;;;;5135195;28;20039;-59
2024/03/28 08:35:07;;;;;;;4.55;2.40;;;;;;;;;;5130916;28;20024;-58
2024/03/28 08:37:32;;;;;;;4.83;3.03;;;;;;;;;;5134974;28;20050;-55
2024/03/28 08:39:58;;;;;;;6.73;3.00;;;;;;;;;;5135914;28;20030;-59
2024/03/28 08:42:23;;;;;;;5.93;3.40;;;;;;;;;;5131564;28;20878;-57
2024/03/28 08:44:48;;;;;;;5.93;3.60;;;;;;;;;;5134210;28;20032;-57
2024/03/28 08:47:14;;;;;;;5.28;3.17;;;;;;;;;;5135681;28;20026;-58
2024/03/28 08:49:40;;;;;;;7.85;3.35;;;;;;;;;;5136396;28;20102;-57
2024/03/28 08:52:05;;;;;;;6.10;3.20;;;;;;;;;;5133885;28;20032;-58
2024/03/28 08:54:31;;;;;;;16.48;3.42;;;;;;;;;;5123400;28;20042;-57
2024/03/28 08:56:57;;;;;;;6.90;3.57;;;;;;;;;;5115054;28;20036;-58
2024/03/28 08:59:22;;;;;;;9.90;4.13;;;;;;;;;;5136116;28;20023;-59
2024/03/28 09:01:47;;;;;;;4.70;3.00;;;;;;;;;;5135417;27;20295;-60
2024/03/28 09:04:20;;;;;;;5.40;3.38;;;;;;;;;;5125911;28;20410;-59
2024/03/28 09:06:46;;;;;;;6.00;3.13;;;;;;;;;;5136064;28;20084;-59
2024/03/28 09:09:11;;;;;;;6.43;3.85;;;;;;;;;;5112949;28;20035;-61
2024/03/28 09:11:40;;;;;;;7.85;3.65;;;;;;;;;;5132906;28;20044;-60
2024/03/28 09:14:06;;;;;;;11.73;4.63;;;;;;;;;;5124046;28;20016;-59
2024/03/28 09:16:32;;;;;;;9.02;3.95;;;;;;;;;;5132531;28;20039;-59
2024/03/28 09:18:59;;;;;;;7.93;3.90;;;;;;;;;;5135874;28;20024;-61
2024/03/28 09:21:25;;;;;;;13.98;4.70;;;;;;;;;;5135751;28;20060;-59
2024/03/28 09:23:51;;;;;;;13.73;4.32;;;;;;;;;;5135704;28;20032;-57
2024/03/28 09:26:19;;;;;;;7.37;4.13;;;;;;;;;;5117844;28;20140;-59
2024/03/28 09:28:45;;;;;;;6.55;4.07;;;;;;;;;;5135856;28;20256;-60
2024/03/28 09:31:10;;;;;;;8.50;4.88;;;;;;;;;;5135626;28;20085;-60
2024/03/28 09:33:36;;;;;;;11.13;4.78;;;;;;;;;;5129200;28;20028;-59
2024/03/28 09:36:01;;;;;;;7.23;3.63;;;;;;;;;;5133603;28;20024;-59
2024/03/28 09:38:27;;;;;;;8.30;4.80;;;;;;;;;;5135460;28;20263;-60
2024/03/28 09:40:52;;;;;;;7.47;4.57;;;;;;;;;;5135388;28;20031;-60
2024/03/28 09:43:18;;;;;;;14.63;5.05;;;;;;;;;;5134546;28;21585;-59
2024/03/28 09:45:44;;;;;;;7.40;4.37;;;;;;;;;;5135171;28;20055;-61
2024/03/28 09:48:14;;;;;;;10.82;5.18;;;;;;;;;;5117438;28;20272;-61
2024/03/28 09:50:40;;;;;;;10.73;4.97;;;;;;;;;;5132727;28;20041;-60
2024/03/28 09:53:06;;;;;;;13.35;5.07;;;;;;;;;;5129874;28;20050;-60
2024/03/28 09:55:32;;;;;;;15.30;4.85;;;;;;;;;;5124573;28;20056;-60
2024/03/28 09:58:01;;;;;;;8.90;4.57;;;;;;;;;;5125970;28;20039;-59
2024/03/28 10:00:28;;;;;;;12.65;5.03;;;;;;;;;;5134787;28;20035;-62
2024/03/28 10:02:56;;;;;;;17.10;5.22;;;;;;;;;;5129666;28;20028;-61
2024/03/28 10:05:22;;;;;;;14.43;5.07;;;;;;;;;;5134008;28;20036;-60
2024/03/28 10:07:47;;;;;;;11.60;4.93;;;;;;;;;;5135266;28;20045;-60
2024/03/28 10:10:13;;;;;;;9.02;4.93;;;;;;;;;;5129701;28;20042;-60
2024/03/28 10:12:38;;;;;;;5.70;4.07;;;;;;;;;;5134861;28;20091;-60
2024/03/28 10:15:04;;;;;;;6.27;4.13;;;;;;;;;;5131575;28;20091;-60
2024/03/28 10:17:30;;;;;;;10.35;4.63;;;;;;;;;;5135168;28;20028;-61
2024/03/28 10:20:00;;;;;;;12.60;5.00;;;;;;;;;;5134461;28;20047;-61
2024/03/28 10:22:26;;;;;;;7.95;4.55;;;;;;;;;;5128001;28;20043;-60
2024/03/28 10:24:51;;;;;;;11.75;3.95;;;;;;;;;;5134738;28;20035;-59
2024/03/28 10:27:20;;;;;;;9.48;4.35;;;;;;;;;;5117119;28;20032;-59
2024/03/28 10:29:49;;;;;;;6.38;4.10;;;;;;;;;;5128995;28;20035;-60
2024/03/28 10:32:15;;;;;;;6.90;4.88;;;;;;;;;;5128050;28;20062;-59
2024/03/28 10:34:45;;;;;;;8.87;5.00;;;;;;;;;;5124687;28;20024;-60
2024/03/28 10:37:10;;;;;;;12.68;4.88;;;;;;;;;;5128168;28;20248;-60
2024/03/28 10:39:36;;;;;;;8.03;4.80;;;;;;;;;;5134612;28;20040;-60
2024/03/28 10:42:04;;;;;;;6.83;4.40;;;;;;;;;;5134342;28;20294;-60
2024/03/28 10:44:30;;;;;;;11.15;5.18;;;;;;;;;;5121917;28;20042;-59
2024/03/28 10:46:57;;;;;;;10.67;5.20;;;;;;;;;;5128923;28;20031;-59
2024/03/28 10:49:25;;;;;;;9.10;6.07;;;;;;;;;;5134607;28;20272;-60
2024/03/28 10:51:54;;;;;;;16.60;5.90;;;;;;;;;;5136444;28;20027;-60
2024/03/28 10:54:25;;;;;;;13.00;6.87;;;;;;;;;;5133394;28;20264;-61
2024/03/28 10:56:53;;;;;;;13.47;6.60;;;;;;;;;;5129978;28;20263;-60
2024/03/28 10:59:20;;;;;;;14.97;7.80;;;;;;;;;;5133724;28;20293;-60
2024/03/28 11:01:45;;;;;;;;;;;;;;;;;;5129791;28;20291;-60
2024/03/28 11:04:11;;;;;;;14.60;5.77;;;;;;;;;;5131312;28;19929;-60
2024/03/28 11:06:37;;;;;;;13.27;6.38;;;;;;;;;;5129982;28;20024;-60
2024/03/28 11:09:03;;;;;;;16.52;7.35;;;;;;;;;;5138368;28;20042;-61
2024/03/28 11:11:30;;;;;;;24.30;7.53;;;;;;;;;;5137861;28;20036;-59
2024/03/28 11:13:56;;;;;;;16.80;6.82;;;;;;;;;;5115456;28;20031;-60
2024/03/28 11:16:23;;;;;;;19.20;7.43;;;;;;;;;;5134214;28;20039;-59
2024/03/28 11:18:49;;;;;;;13.93;5.73;;;;;;;;;;5135377;28;20260;-59
2024/03/28 11:21:24;;;;;;;14.82;6.93;;;;;;;;;;5135496;28;20039;-57
2024/03/28 11:23:50;;;;;;;14.90;7.07;;;;;;;;;;5137202;28;20032;-58
2024/03/28 11:26:19;;;;;;;15.02;6.68;;;;;;;;;;5136961;28;20247;-59
2024/03/28 11:28:45;;;;;;;16.17;5.93;;;;;;;;;;5137565;28;20024;-58
2024/03/28 11:31:13;;;;;;;10.73;4.97;;;;;;;;;;5135756;28;20358;-58
2024/03/28 11:33:39;;;;;;;10.80;4.83;;;;;;;;;;5129382;28;20279;-57
2024/03/28 11:36:08;;;;;;;12.73;5.53;;;;;;;;;;5135043;28;20255;-59
2024/03/28 11:38:35;;;;;;;15.83;5.53;;;;;;;;;;5137254;28;20268;-57
2024/03/28 11:41:00;;;;;;;10.20;5.18;;;;;;;;;;5129361;28;20268;-55
2024/03/28 11:43:26;;;;;;;13.03;5.73;;;;;;;;;;5136324;28;20091;-58
2024/03/28 11:45:54;;;;;;;14.32;5.00;;;;;;;;;;5134854;28;20024;-55
2024/03/28 11:48:20;;;;;;;11.10;4.40;;;;;;;;;;5137046;28;20177;-59
2024/03/28 11:50:46;;;;;;;;;;;;;;;;;;5137283;28;20331;-57
2024/03/28 11:53:12;;;;;;;6.97;2.50;;;;;;;;;;5136846;28;19953;-58
2024/03/28 11:55:42;;;;;;;8.43;2.50;;;;;;;;;;5137206;28;20051;-58
2024/03/28 11:58:17;;;;;;;4.10;2.30;;;;;;;;;;5136994;28;20030;-55
2024/03/28 12:00:42;;;;;;;9.93;2.63;;;;;;;;;;5133128;28;20267;-55
2024/03/28 12:03:08;;;;;;;4.93;2.72;;;;;;;;;;5136907;28;20252;-57
2024/03/28 12:05:33;;;;;;;6.03;2.20;;;;;;;;;;5122391;28;20036;-58
2024/03/28 12:07:59;;;;;;;9.63;2.83;;;;;;;;;;5122616;28;20163;-55
2024/03/28 12:10:24;;;;;;;6.75;2.10;;;;;;;;;;5126397;28;20032;-59
2024/03/28 12:12:50;;;;;;;7.43;2.60;;;;;;;;;;5132842;28;20097;-57
2024/03/28 12:15:15;;;;;;;5.00;2.03;;;;;;;;;;5135189;28;20024;-58
2024/03/28 12:17:41;;;;;;;6.90;2.72;;;;;;;;;;5136721;28;20038;-59
2024/03/28 12:20:09;;;;;;;10.82;2.17;;;;;;;;;;5131478;28;20027;-56
2024/03/28 12:22:38;;;;;;;5.97;1.60;;;;;;;;;;5131777;28;20035;-57
2024/03/28 12:25:08;;;;;;;5.70;1.50;;;;;;;;;;5131498;28;20038;-58
2024/03/28 12:27:34;;;;;;;3.00;0.97;;;;;;;;;;5127883;28;20038;-56
2024/03/28 12:30:10;;;;;;;2.60;0.98;;;;;;;;;;5135132;28;20083;-59
2024/03/28 12:32:36;;;;;;;3.72;1.65;;;;;;;;;;5131422;28;20062;-59
2024/03/28 12:35:02;;;;;;;;;;;;;;;;;;5135428;28;20035;-57
2024/03/28 12:37:27;;;;;;;3.60;1.10;;;;;;;;;;5130431;28;19908;-58
2024/03/28 12:39:53;;;;;;;3.22;1.42;;;;;;;;;;5136220;28;20034;-58
2024/03/28 12:42:22;;;;;;;1.00;0.70;;;;;;;;;;5129623;28;20057;-59
2024/03/28 12:44:47;;;;;;;7.93;1.53;;;;;;;;;;5127090;28;20035;-58
2024/03/28 12:47:14;;;;;;;2.53;1.02;;;;;;;;;;5123818;28;20031;-56
2024/03/28 12:49:39;;;;;;;5.07;1.25;;;;;;;;;;5110482;28;20101;-58
2024/03/28 12:52:05;;;;;;;4.03;1.20;;;;;;;;;;5128852;28;20114;-57
2024/03/28 12:54:30;;;;;;;6.77;1.13;;;;;;;;;;5108226;28;20028;-55
2024/03/28 12:56:55;;;;;;;3.60;1.10;;;;;;;;;;5121434;28;20034;-59
2024/03/28 12:59:20;;;;;;;4.20;1.13;;;;;;;;;;5135412;28;20051;-57
2024/03/28 13:01:46;;;;;;;1.60;0.80;;;;;;;;;;5135603;28;20070;-58
2024/03/28 13:04:12;;;;;;;1.45;0.65;;;;;;;;;;5132625;28;20070;-58
2024/03/28 13:06:37;;;;;;;2.78;0.85;;;;;;;;;;5135537;28;20039;-59
2024/03/28 13:09:03;;;;;;;1.25;0.63;;;;;;;;;;5130571;28;20052;-59
2024/03/28 13:11:28;;;;;;;5.18;1.05;;;;;;;;;;5135499;28;20065;-56
2024/03/28 13:13:54;;;;;;;2.20;0.90;;;;;;;;;;5121957;28;20042;-58
2024/03/28 13:16:21;;;;;;;2.60;0.80;;;;;;;;;;5132841;28;20035;-58
2024/03/28 13:18:46;;;;;;;2.33;0.98;;;;;;;;;;5135940;28;20039;-56
2024/03/28 13:21:11;;;;;;;3.27;0.70;;;;;;;;;;5134817;28;20104;-56
2024/03/28 13:23:37;;;;;;;1.67;0.60;;;;;;;;;;5123138;28;20035;-55
2024/03/28 13:26:02;;;;;;;1.00;0.40;;;;;;;;;;5134112;28;20179;-59
2024/03/28 13:28:27;;;;;;;3.42;0.57;;;;;;;;;;5124237;28;20027;-59
2024/03/28 13:30:54;;;;;;;0.88;0.40;;;;;;;;;;5117329;28;20103;-57
2024/03/28 13:33:19;;;;;;;;;;;;;;;;;;5132729;28;20035;-57
2024/03/28 13:35:45;;;;;;;6.97;2.70;;;;;;;;;;5134449;28;19974;-56
2024/03/28 13:38:12;;;;;;;;;;;;;;;;;;5134383;28;20049;-56
2024/03/28 13:40:38;;;;;;;1.80;0.60;;;;;;;;;;5132901;28;19908;-58
2024/03/28 13:43:03;;;;;;;1.10;0.50;;;;;;;;;;5127617;28;20043;-56
2024/03/28 13:45:28;;;;;;;4.60;1.13;;;;;;;;;;5133307;28;20035;-57
2024/03/28 13:47:54;;;;;;;4.60;0.43;;;;;;;;;;5121292;28;20270;-57
2024/03/28 13:50:19;;;;;;;0.65;0.40;;;;;;;;;;5130403;28;20043;-56
2024/03/28 13:52:44;;;;;;;1.83;0.60;;;;;;;;;;5133359;28;20083;-55
2024/03/28 13:55:09;;;;;;;4.27;0.70;;;;;;;;;;5125295;28;20020;-57
2024/03/28 13:57:35;;;;;;;5.07;1.33;;;;;;;;;;5135004;28;20027;-58
2024/03/28 14:00:00;;;;;;;3.27;0.60;;;;;;;;;;5133883;28;20040;-57
2024/03/28 14:02:25;;;;;;;0.90;0.53;;;;;;;;;;5133853;28;20057;-57
2024/03/28 14:04:50;;;;;;;1.53;0.60;;;;;;;;;;5134440;28;20091;-57
2024/03/28 14:07:16;;;;;;;3.60;0.70;;;;;;;;;;5134894;28;20023;-58
2024/03/28 14:09:41;;;;;;;1.37;0.40;;;;;;;;;;5135128;28;20042;-58
2024/03/28 14:12:06;;;;;;;4.43;1.50;;;;;;;;;;5134171;28;20466;-55
2024/03/28 14:14:31;;;;;;;6.10;0.55;;;;;;;;;;5134133;28;20035;-58
2024/03/28 14:16:57;;;;;;;1.95;0.60;;;;;;;;;;5134653;28;20020;-56
2024/03/28 14:19:22;;;;;;;3.00;0.50;;;;;;;;;;5134882;28;20091;-55
2024/03/28 14:21:48;;;;;;;3.08;1.13;;;;;;;;;;5121711;28;20035;-56
2024/03/28 14:24:13;;;;;;;6.65;1.23;;;;;;;;;;5116603;28;20028;-58
2024/03/28 14:26:39;;;;;;;1.30;0.57;;;;;;;;;;5134743;28;20039;-59
2024/03/28 14:29:04;;;;;;;5.10;0.97;;;;;;;;;;5121574;28;20032;-59
2024/03/28 14:31:30;;;;;;;3.45;0.75;;;;;;;;;;5133843;28;20042;-58
2024/03/28 14:33:56;;;;;;;1.85;0.63;;;;;;;;;;5129055;28;20049;-58
2024/03/28 14:36:22;;;;;;;1.93;0.50;;;;;;;;;;5128789;28;20032;-57
2024/03/28 14:38:48;;;;;;;6.20;1.40;;;;;;;;;;5134798;28;20026;-57
2024/03/28 14:41:15;;;;;;;2.13;0.60;;;;;;;;;;5138838;28;20057;-59
2024/03/28 14:43:41;;;;;;;1.13;0.40;;;;;;;;;;5138007;28;20032;-59